London Airport
CYXU : rendu visible

Aérodrome :











RETROUVEZ-NOUS SUR...

 
LOGIN :

S'inscrire | Disclaimer

   EN    FR    IT 

 









Légende :    VFR   VFR Marginal   IFR   IFR Intensif   IFR Très Intensif
Visi : 
Plafond : 
>= 8 km
>= 3000ft
5 à 8 km
1000 à 3000 ft
1500m à 5 km
500 à 1000 ft
800 à 1500m
200 à 500 ft
< 800m
< 200 ft
Symboles :   Orages  Brouillard  Fortes neiges  Fortes précipitations  Vent > 20 kt






- Altitude de l'aérodrome : 912 ft
- Code IATA : YXU


CYXU - London

DERNIER METAR :
  • 211652Z 17011G16KT 10SM -RA FEW058 OVC100 06/03 A2999 RMK SC1AC7 SLP165

METARs EXPIRÉS :
  • 211600Z 17012G18KT 10SM BKN097 OVC200 05/03 A3003 RMK AC7CI1 SLP180
  • 211500Z 17012G18KT 10SM FEW015 BKN100 OVC180 05/03 A3006 RMK CF1AC6AS1 SLP189

TAF TAF CYXU
Valide du 21 à 12h jusqu'au 22 à 12h UTC


211138Z 2112/2212 16005KT P6SM OVC025
TEMPO 2112/2115 OVC020
FM211500 18010G20KT P6SM BKN015 BKN180
TEMPO 2115/2117 SCT015 BKN180
FM211700 18015G25KT P6SM FEW015 OVC100
FM211900 18015G25KT P6SM -SHRA SCT015 OVC080
FM212200 18015G25KT 4SM -SHRA BR SCT006 OVC012
BECMG 2202/2204 22015G25KT
FM220600 24020G30KT 6SM -SHRA BR SCT008 OVC015
FM220800 28020G30KT P6SM -SHRA OVC015
FM221100 29020G30KT 4SM -SHSN SCT008 OVC015 RMK NXT FCST BY 211800Z



MET'MAP, la Météo Aéronautique d'un coup d'oeil ! - Copyright ORBIFLY Décembre 2007 - Disclaimer

ORBIFLY MET'MAP TEAM :

Programmation & Développement : Alexandra Zaïnal
Conception & Développement : Baudouin d'Aumeries
Co-Programmation & Développement : Marc-Olivier Méhu
Soutien technique & logistique : Manuel Goepfert

Contact : metmap@orbifly.com




SOURCES & CREDITS :

   NOAA       Earth
Advisory